createdAt,value
2024-03-08T00:04:26.778Z,12.45
2024-03-08T00:10:31.776Z,11.52
2024-03-08T00:16:36.453Z,12.13
2024-03-08T00:22:40.514Z,12.45
2024-03-08T00:28:46.582Z,12.32
2024-03-08T00:34:53.057Z,11.90
2024-03-08T00:40:57.053Z,11.95
2024-03-08T00:47:02.011Z,11.70
2024-03-08T00:53:05.938Z,11.05
2024-03-08T00:59:10.007Z,11.52
2024-03-08T01:05:15.047Z,11.77
2024-03-08T01:11:19.290Z,10.57
2024-03-08T01:17:22.897Z,11.65
2024-03-08T01:23:27.924Z,11.15
2024-03-08T01:29:31.853Z,11.05
2024-03-08T01:35:35.657Z,10.48
2024-03-08T01:41:41.579Z,11.20
2024-03-08T01:47:45.466Z,10.95
2024-03-08T01:53:49.864Z,11.55
2024-03-08T01:59:55.806Z,11.57
2024-03-08T02:06:00.226Z,12.07
2024-03-08T02:12:03.911Z,11.30
2024-03-08T02:18:09.172Z,12.20
2024-03-08T02:24:14.282Z,12.27
2024-03-08T02:30:18.952Z,13.50
2024-03-08T02:36:22.812Z,13.25
2024-03-08T02:42:27.925Z,13.57
2024-03-08T02:48:31.986Z,13.43
2024-03-08T02:54:36.170Z,13.88
2024-03-08T03:00:42.124Z,13.25
2024-03-08T03:06:45.773Z,14.10
2024-03-08T03:12:49.857Z,14.50
2024-03-08T03:18:54.914Z,14.65
2024-03-08T03:24:59.721Z,16.05
2024-03-08T03:31:03.278Z,14.70
2024-03-08T03:37:09.821Z,14.75
2024-03-08T03:43:13.418Z,14.75
2024-03-08T03:49:16.929Z,14.93
2024-03-08T03:55:23.037Z,14.88
2024-03-08T04:01:26.565Z,14.43
2024-03-08T04:07:30.116Z,16.23
2024-03-08T04:13:35.029Z,15.60
2024-03-08T04:19:38.769Z,16.25
2024-03-08T04:25:43.402Z,15.50
2024-03-08T04:31:48.705Z,15.77
2024-03-08T04:37:52.217Z,14.68
2024-03-08T04:43:58.830Z,13.93
2024-03-08T04:50:03.716Z,15.13
2024-03-08T04:56:08.381Z,15.45
2024-03-08T05:02:12.748Z,15.38
2024-03-08T05:08:19.851Z,15.13
2024-03-08T05:14:23.705Z,15.70
2024-03-08T05:20:27.302Z,15.13
2024-03-08T05:26:34.371Z,16.65
2024-03-08T05:32:38.653Z,15.68
2024-03-08T05:38:42.420Z,14.63
2024-03-08T05:44:47.395Z,15.27
2024-03-08T05:50:51.034Z,16.40
2024-03-08T05:56:55.749Z,15.43
2024-03-08T06:03:01.033Z,15.93
2024-03-08T06:09:10.713Z,15.20
2024-03-08T06:15:16.504Z,16.08
2024-03-08T06:21:22.681Z,15.35
2024-03-08T06:27:26.305Z,15.48
2024-03-08T06:33:31.348Z,16.10
2024-03-08T06:39:37.426Z,14.85
2024-03-08T06:45:40.994Z,15.52
2024-03-08T06:51:44.664Z,16.23
2024-03-08T06:57:49.649Z,15.52
2024-03-08T07:03:53.779Z,15.45
2024-03-08T07:09:58.075Z,14.80
2024-03-08T07:16:03.203Z,15.55
2024-03-08T07:22:09.556Z,16.27
2024-03-08T07:28:14.144Z,15.90
2024-03-08T07:34:19.181Z,15.70
2024-03-08T07:40:22.824Z,15.57
2024-03-08T07:46:27.992Z,15.60
2024-03-08T07:52:34.858Z,15.15
2024-03-08T07:58:38.436Z,16.25
2024-03-08T08:04:42.635Z,14.48
2024-03-08T08:10:47.935Z,15.18
2024-03-08T08:16:54.022Z,15.02
2024-03-08T08:22:57.793Z,15.38
2024-03-08T08:29:02.699Z,14.55
2024-03-08T08:35:06.938Z,15.57
2024-03-08T08:41:10.505Z,14.95
2024-03-08T08:47:16.681Z,16.27
2024-03-08T08:53:20.790Z,20.27
2024-03-08T08:59:27.791Z,15.85
2024-03-08T09:05:34.709Z,15.15
2024-03-08T09:11:42.835Z,15.05
2024-03-08T09:17:46.709Z,16.48
2024-03-08T09:23:52.216Z,14.38
2024-03-08T09:29:56.111Z,14.43
2024-03-08T09:36:02.212Z,15.68
2024-03-08T09:42:09.019Z,14.35
2024-03-08T09:48:15.026Z,13.68
2024-03-08T09:54:24.114Z,14.20
2024-03-08T10:00:29.710Z,15.30
2024-03-08T10:06:33.477Z,15.23
2024-03-08T10:12:37.681Z,15.13
2024-03-08T10:18:43.525Z,14.07
2024-03-08T10:24:48.053Z,15.35
2024-03-08T10:30:51.737Z,17.35
2024-03-08T10:37:00.273Z,14.68
2024-03-08T10:43:05.462Z,14.55
2024-03-08T10:49:11.209Z,14.65
2024-03-08T10:55:16.901Z,13.90
2024-03-08T11:01:20.564Z,13.63
2024-03-08T11:07:24.339Z,14.85
2024-03-08T11:13:45.759Z,14.85
2024-03-08T11:19:53.497Z,14.55
2024-03-08T11:25:57.508Z,12.68
2024-03-08T11:32:06.700Z,13.43
2024-03-08T11:38:12.184Z,12.45
2024-03-08T11:44:17.409Z,12.93
2024-03-08T11:50:22.323Z,12.45
2024-03-08T11:56:28.406Z,12.95
2024-03-08T12:02:32.433Z,13.57
2024-03-08T12:08:36.110Z,13.07
2024-03-08T12:14:42.552Z,12.65
2024-03-08T12:20:51.245Z,13.48
2024-03-08T12:26:54.974Z,12.50
2024-03-08T12:33:01.358Z,12.32
2024-03-08T12:39:05.836Z,12.52
2024-03-08T12:45:11.206Z,16.40
2024-03-08T12:51:16.964Z,12.77
2024-03-08T12:57:20.570Z,13.13
2024-03-08T13:03:24.729Z,12.88
2024-03-08T13:09:33.017Z,11.73
2024-03-08T13:15:36.874Z,13.18
2024-03-08T13:21:40.542Z,11.27
2024-03-08T13:27:46.802Z,12.13
2024-03-08T13:33:51.109Z,14.53
2024-03-08T13:39:54.652Z,11.63
2024-03-08T13:45:59.563Z,11.60
2024-03-08T13:52:03.431Z,11.27
2024-03-08T13:58:10.710Z,12.43
2024-03-08T14:04:18.202Z,11.80
2024-03-08T14:10:24.241Z,11.07
2024-03-08T14:16:27.910Z,11.57
2024-03-08T14:22:33.573Z,11.73
2024-03-08T14:28:37.265Z,12.50
2024-03-08T14:34:42.887Z,11.88
2024-03-08T14:40:48.542Z,12.10
2024-03-08T14:46:52.218Z,11.07
2024-03-08T14:52:55.880Z,11.80
2024-03-08T14:59:01.061Z,11.75
2024-03-08T15:05:09.946Z,10.77
2024-03-08T15:11:13.602Z,11.32
2024-03-08T15:17:22.014Z,10.05
2024-03-08T15:23:25.946Z,10.55
2024-03-08T15:29:30.707Z,10.70
2024-03-08T15:35:36.263Z,10.45
2024-03-08T15:41:40.232Z,10.25
2024-03-08T15:47:44.911Z,10.65
2024-03-08T15:53:54.584Z,10.15
2024-03-08T16:00:01.456Z,12.13
2024-03-08T16:06:07.603Z,14.95
2024-03-08T16:12:13.024Z,13.23
2024-03-08T16:18:17.265Z,11.50
2024-03-08T16:24:20.808Z,10.73
2024-03-08T16:30:30.837Z,11.02
2024-03-08T16:36:34.483Z,10.23
2024-03-08T16:42:40.371Z,9.68
2024-03-08T16:48:46.091Z,10.15
2024-03-08T16:54:56.976Z,10.13
2024-03-08T17:01:04.831Z,9.85
2024-03-08T17:07:10.078Z,10.10
2024-03-08T17:13:15.989Z,9.95
2024-03-08T17:19:19.701Z,10.10
2024-03-08T17:25:25.745Z,10.20
2024-03-08T17:31:29.891Z,10.55
2024-03-08T17:37:33.486Z,10.90
2024-03-08T17:43:39.135Z,10.68
2024-03-08T17:49:43.745Z,11.30
2024-03-08T17:55:48.723Z,11.73
2024-03-08T18:01:56.563Z,11.57
2024-03-08T18:08:00.385Z,12.02
2024-03-08T18:14:05.535Z,11.57
2024-03-08T18:20:15.426Z,11.68
2024-03-08T18:26:19.615Z,10.63
2024-03-08T18:32:23.364Z,11.50
2024-03-08T18:38:28.345Z,11.10
2024-03-08T18:44:31.898Z,10.85
2024-03-08T18:50:35.679Z,11.25
2024-03-08T18:56:41.264Z,11.10
2024-03-08T19:02:45.214Z,10.57
2024-03-08T19:08:50.123Z,11.27
2024-03-08T19:14:55.300Z,10.77
2024-03-08T19:20:59.725Z,10.57
2024-03-08T19:27:04.061Z,10.23
2024-03-08T19:33:13.939Z,10.80
2024-03-08T19:39:21.458Z,12.20
2024-03-08T19:45:27.360Z,10.57
2024-03-08T19:51:32.729Z,10.48
2024-03-08T19:57:36.336Z,11.13
2024-03-08T20:03:40.751Z,10.73
2024-03-08T20:09:45.866Z,10.30
2024-03-08T20:15:55.056Z,10.05
2024-03-08T20:22:00.227Z,9.32
2024-03-08T20:28:07.147Z,11.30
2024-03-08T20:34:12.776Z,10.70
2024-03-08T20:40:16.891Z,10.48
2024-03-08T20:46:22.658Z,10.80
2024-03-08T20:52:26.285Z,11.27
2024-03-08T20:58:29.959Z,10.30
2024-03-08T21:04:36.844Z,10.70
2024-03-08T21:10:41.902Z,11.38
2024-03-08T21:16:45.974Z,12.65
2024-03-08T21:22:51.004Z,10.57
2024-03-08T21:28:54.915Z,10.43
2024-03-08T21:34:58.551Z,10.27
2024-03-08T21:41:06.011Z,9.63
2024-03-08T21:47:10.552Z,10.98
2024-03-08T21:53:20.715Z,11.02
2024-03-08T21:59:35.718Z,11.25
2024-03-08T22:05:39.297Z,12.27
2024-03-08T22:11:42.959Z,10.68
2024-03-08T22:17:49.680Z,11.00
2024-03-08T22:23:53.283Z,11.15
2024-03-08T22:29:58.357Z,11.23
2024-03-08T22:36:07.893Z,11.43
2024-03-08T22:42:12.456Z,11.18
2024-03-08T22:48:15.972Z,10.98
2024-03-08T22:54:24.662Z,10.95
2024-03-08T23:00:42.055Z,10.75
2024-03-08T23:06:45.750Z,11.30
2024-03-08T23:12:54.272Z,11.15
2024-03-08T23:18:59.209Z,11.52
2024-03-08T23:25:05.093Z,11.25
2024-03-08T23:31:10.857Z,11.63
2024-03-08T23:37:14.407Z,11.07
2024-03-08T23:43:18.647Z,11.18
2024-03-08T23:49:23.686Z,10.27
2024-03-08T23:55:29.091Z,11.10
